createdAt,value
2023-04-04T00:01:01.641Z,99637.25
2023-04-04T00:02:24.293Z,99632.98
2023-04-04T00:03:47.134Z,99633.30
2023-04-04T00:05:12.864Z,99632.09
2023-04-04T00:06:43.775Z,99633.31
2023-04-04T00:08:04.909Z,99634.86
2023-04-04T00:09:25.930Z,99632.03
2023-04-04T00:10:58.575Z,99629.64
2023-04-04T00:12:31.269Z,99630.73
2023-04-04T00:13:45.514Z,99632.14
2023-04-04T00:14:56.418Z,99628.52
2023-04-04T00:16:29.031Z,99629.38
2023-04-04T00:18:01.673Z,99630.38
2023-04-04T00:19:16.723Z,99630.20
2023-04-04T00:20:42.788Z,99632.67
2023-04-04T00:22:15.546Z,99637.60
2023-04-04T00:23:48.261Z,99634.58
2023-04-04T00:25:17.019Z,99636.73
2023-04-04T00:26:36.942Z,99636.77
2023-04-04T00:27:51.940Z,99635.17
2023-04-04T00:29:07.051Z,99636.20
2023-04-04T00:30:27.157Z,99635.45
2023-04-04T00:31:52.605Z,99642.44
2023-04-04T00:33:05.995Z,99642.08
2023-04-04T00:34:21.213Z,99642.60
2023-04-04T00:35:52.639Z,99642.36
2023-04-04T00:36:47.345Z,99642.83
2023-04-04T00:38:19.743Z,99643.70
2023-04-04T00:39:33.147Z,99638.61
2023-04-04T00:41:04.623Z,99636.42
2023-04-04T00:42:12.479Z,99633.76
2023-04-04T00:43:45.030Z,99637.06
2023-04-04T00:44:37.317Z,99635.45
2023-04-04T00:46:10.009Z,99630.50
2023-04-04T00:47:42.378Z,99631.67
2023-04-04T00:49:14.622Z,99637.01
2023-04-04T00:50:47.371Z,99634.38
2023-04-04T00:51:59.916Z,99633.23
2023-04-04T00:53:21.554Z,99635.18
2023-04-04T00:54:28.968Z,99634.23
2023-04-04T00:55:40.973Z,99633.50
2023-04-04T00:56:57.401Z,99631.31
2023-04-04T00:58:06.911Z,99629.29
2023-04-04T00:59:04.528Z,99630.70
2023-04-04T01:00:25.784Z,99628.81
2023-04-04T01:01:47.331Z,99629.07
2023-04-04T01:03:19.908Z,99629.33
2023-04-04T01:04:40.142Z,99631.59
2023-04-04T01:05:51.478Z,99626.34
2023-04-04T01:07:01.705Z,99629.26
2023-04-04T01:08:22.975Z,99629.80
2023-04-04T01:09:55.529Z,99635.34
2023-04-04T01:11:27.374Z,99629.79
2023-04-04T01:12:42.993Z,99632.30
2023-04-04T01:13:41.731Z,99627.41
2023-04-04T01:15:08.301Z,99626.88
2023-04-04T01:16:30.715Z,99625.55
2023-04-04T01:17:43.353Z,99625.26
2023-04-04T01:19:06.369Z,99625.62
2023-04-04T01:20:26.201Z,99624.67
2023-04-04T01:22:01.519Z,99627.50
2023-04-04T01:23:17.466Z,99622.94
2023-04-04T01:24:52.088Z,99626.58
2023-04-04T01:26:08.400Z,99630.34
2023-04-04T01:27:23.749Z,99631.77
2023-04-04T01:28:56.431Z,99631.32
2023-04-04T01:29:57.674Z,99628.98
2023-04-04T01:31:11.820Z,99635.42
2023-04-04T01:32:33.017Z,99636.14
2023-04-04T01:34:11.402Z,99633.48
2023-04-04T01:35:53.544Z,99632.18
2023-04-04T01:37:28.952Z,99634.42
2023-04-04T01:38:53.401Z,99629.35
2023-04-04T01:40:08.708Z,99631.14
2023-04-04T01:41:41.251Z,99630.85
2023-04-04T01:42:56.755Z,99629.89
2023-04-04T01:44:29.300Z,99631.34
2023-04-04T01:46:02.298Z,99632.86
2023-04-04T01:47:24.838Z,99629.61
2023-04-04T01:48:27.005Z,99633.89
2023-04-04T01:49:21.454Z,99635.80
2023-04-04T01:50:42.270Z,99634.94
2023-04-04T01:52:07.538Z,99629.73
2023-04-04T01:53:31.647Z,99635.61
2023-04-04T01:55:04.108Z,99632.83
2023-04-04T01:56:16.822Z,99632.27
2023-04-04T01:57:34.630Z,99634.30
2023-04-04T01:58:37.540Z,99637.98
2023-04-04T02:00:10.174Z,99628.86
2023-04-04T02:01:42.947Z,99630.05
2023-04-04T02:03:01.281Z,99629.37
2023-04-04T02:04:22.592Z,99631.63
2023-04-04T02:05:06.949Z,99633.15
2023-04-04T02:06:39.468Z,99633.45
2023-04-04T02:08:11.961Z,99634.95
2023-04-04T02:09:30.577Z,99636.70
2023-04-04T02:10:55.593Z,99635.21
2023-04-04T02:12:28.296Z,99635.95
2023-04-04T02:14:00.909Z,99639.37
2023-04-04T02:15:22.001Z,99638.29
2023-04-04T02:16:39.840Z,99640.05
2023-04-04T02:18:12.560Z,99640.58
2023-04-04T02:19:45.071Z,99642.20
2023-04-04T02:21:07.627Z,99647.13
2023-04-04T02:22:03.793Z,99643.86
2023-04-04T02:23:36.970Z,99645.50
2023-04-04T02:24:54.074Z,99643.84
2023-04-04T02:26:09.619Z,99641.27
2023-04-04T02:27:34.534Z,99637.17
2023-04-04T02:29:07.546Z,99632.81
2023-04-04T02:30:01.503Z,99631.34
2023-04-04T02:31:34.064Z,99630.42
2023-04-04T02:33:07.987Z,99625.50
2023-04-04T02:34:30.999Z,99629.91
2023-04-04T02:35:41.869Z,99625.17
2023-04-04T02:36:56.822Z,99621.41
2023-04-04T02:38:30.065Z,99618.72
2023-04-04T02:40:02.641Z,99621.17
2023-04-04T02:41:35.189Z,99620.58
2023-04-04T02:43:07.881Z,99622.67
2023-04-04T02:44:14.747Z,99626.95
2023-04-04T02:45:48.620Z,99619.91
2023-04-04T02:47:21.516Z,99613.77
2023-04-04T02:48:37.908Z,99611.76
2023-04-04T02:51:34.064Z,99606.45
2023-04-04T02:52:59.812Z,99613.42
2023-04-04T02:54:10.422Z,99610.94
2023-04-04T02:55:44.141Z,99608.36
2023-04-04T02:57:18.582Z,99601.61
2023-04-04T02:58:43.968Z,99597.32
2023-04-04T03:00:06.837Z,99596.82
2023-04-04T03:01:40.588Z,99593.61
2023-04-04T03:03:00.883Z,99596.09
2023-04-04T03:04:28.302Z,99597.83
2023-04-04T03:05:52.228Z,99595.36
2023-04-04T03:11:42.392Z,99585.53
2023-04-04T03:12:51.395Z,99584.61
2023-04-04T03:13:48.748Z,99580.83
2023-04-04T03:15:00.183Z,99583.54
2023-04-04T03:16:23.444Z,99586.15
2023-04-04T03:17:49.010Z,99588.47
2023-04-04T03:18:50.179Z,99581.89
2023-04-04T03:19:57.101Z,99581.25
2023-04-04T03:20:51.926Z,99575.75
2023-04-04T03:21:44.300Z,99576.95
2023-04-04T03:22:26.628Z,99577.98
2023-04-04T03:23:31.938Z,99575.61
2023-04-04T03:24:47.538Z,99575.77
2023-04-04T03:25:26.108Z,99574.61
2023-04-04T03:26:21.969Z,99576.67
2023-04-04T03:27:14.442Z,99580.17
2023-04-04T03:28:09.583Z,99583.07
2023-04-04T03:29:19.976Z,99582.94
2023-04-04T03:30:06.920Z,99586.03
2023-04-04T03:31:07.473Z,99588.49
2023-04-04T03:32:22.132Z,99589.70
2023-04-04T03:33:18.476Z,99593.58
2023-04-04T03:34:15.176Z,99589.67
2023-04-04T03:34:57.693Z,99593.11
2023-04-04T03:35:59.648Z,99590.39
2023-04-04T03:36:34.958Z,99592.14
2023-04-04T03:37:34.983Z,99588.36
2023-04-04T03:38:15.113Z,99592.48
2023-04-04T03:39:10.502Z,99596.29
2023-04-04T03:40:17.308Z,99591.38
2023-04-04T03:41:13.905Z,99591.63
2023-04-04T03:42:16.318Z,99590.67
2023-04-04T03:43:24.734Z,99590.19
2023-04-04T03:44:19.985Z,99590.25
2023-04-04T03:45:06.867Z,99585.86
2023-04-04T03:45:49.600Z,99583.91
2023-04-04T03:46:52.854Z,99585.30
2023-04-04T03:48:16.346Z,99585.60
2023-04-04T03:49:15.466Z,99587.16
2023-04-04T03:50:38.175Z,99586.83
2023-04-04T03:52:00.976Z,99589.44
2023-04-04T03:53:33.633Z,99590.08
2023-04-04T03:54:29.294Z,99594.09
2023-04-04T03:55:29.172Z,99594.34
2023-04-04T03:56:21.685Z,99591.48
2023-04-04T03:57:40.087Z,99590.78
2023-04-04T03:58:41.808Z,99591.35
2023-04-04T03:59:43.786Z,99590.37
2023-04-04T04:01:06.257Z,99594.21
2023-04-04T04:01:41.268Z,99596.67
2023-04-04T04:02:46.989Z,99593.13
2023-04-04T04:03:39.443Z,99594.54
2023-04-04T04:04:19.455Z,99595.73
2023-04-04T04:05:24.375Z,99598.45
2023-04-04T04:06:24.609Z,99599.02
2023-04-04T04:07:22.462Z,99595.95
2023-04-04T04:08:14.574Z,99596.23
2023-04-04T04:08:58.364Z,99599.14
2023-04-04T04:09:53.763Z,99595.68
2023-04-04T04:10:54.486Z,99599.52
2023-04-04T04:11:58.935Z,99600.44
2023-04-04T04:12:56.720Z,99597.30
2023-04-04T04:14:02.364Z,99598.65
2023-04-04T04:15:02.512Z,99600.55
2023-04-04T04:15:40.759Z,99599.26
2023-04-04T04:16:50.350Z,99600.95
2023-04-04T04:17:48.067Z,99596.08
2023-04-04T04:19:20.637Z,99598.27
2023-04-04T04:20:11.941Z,99600.05
2023-04-04T04:21:29.799Z,99598.34
2023-04-04T04:22:41.658Z,99603.21
2023-04-04T04:23:46.991Z,99606.44
2023-04-04T04:25:19.546Z,99608.84
2023-04-04T04:26:25.741Z,99610.07
2023-04-04T04:27:38.041Z,99606.66
2023-04-04T04:28:59.691Z,99608.90
2023-04-04T04:29:57.518Z,99608.17
2023-04-04T04:30:53.508Z,99611.50
2023-04-04T04:31:46.119Z,99615.30
2023-04-04T04:32:46.368Z,99614.07
2023-04-04T04:33:59.161Z,99618.91
2023-04-04T04:35:14.032Z,99620.52
2023-04-04T04:36:07.223Z,99622.23
2023-04-04T04:37:23.119Z,99622.91
2023-04-04T04:38:11.151Z,99624.48
2023-04-04T04:39:01.153Z,99628.23
2023-04-04T04:40:05.705Z,99626.69
2023-04-04T04:41:20.547Z,99627.53
2023-04-04T04:42:34.205Z,99629.66
2023-04-04T04:43:46.496Z,99631.25
2023-04-04T04:44:32.042Z,99631.96
2023-04-04T04:45:56.352Z,99633.78
2023-04-04T04:47:09.936Z,99638.72
2023-04-04T04:47:58.096Z,99639.34
2023-04-04T04:49:00.338Z,99637.70
2023-04-04T04:50:26.847Z,99642.23
2023-04-04T04:51:12.029Z,99640.88
2023-04-04T04:52:37.536Z,99643.48
2023-04-04T04:54:01.327Z,99641.90
2023-04-04T04:55:15.304Z,99646.20
2023-04-04T04:56:19.137Z,99647.32
2023-04-04T04:57:17.899Z,99653.76
2023-04-04T04:58:15.944Z,99652.02
2023-04-04T04:59:21.496Z,99651.35
2023-04-04T05:00:27.272Z,99653.88
2023-04-04T05:01:43.180Z,99651.02
2023-04-04T05:02:37.042Z,99656.52
2023-04-04T05:03:42.210Z,99653.10
2023-04-04T05:04:48.316Z,99651.14
2023-04-04T05:06:00.647Z,99652.15
2023-04-04T05:07:07.316Z,99654.93
2023-04-04T05:08:23.558Z,99647.92
2023-04-04T05:09:36.028Z,99655.30
2023-04-04T05:10:50.857Z,99645.96
2023-04-04T05:11:47.270Z,99646.11
2023-04-04T05:12:28.148Z,99645.69
2023-04-04T05:13:22.143Z,99648.23
2023-04-04T05:14:19.008Z,99646.22
2023-04-04T05:15:29.561Z,99649.23
2023-04-04T05:16:50.661Z,99645.05
2023-04-04T05:17:34.937Z,99648.67
2023-04-04T05:18:54.708Z,99645.91
2023-04-04T05:19:59.687Z,99644.23
2023-04-04T05:21:27.953Z,99640.11
2023-04-04T05:22:45.328Z,99639.61
2023-04-04T05:23:57.579Z,99637.23
2023-04-04T05:25:26.616Z,99643.64
2023-04-04T05:26:42.122Z,99639.70
2023-04-04T05:28:05.489Z,99642.94
2023-04-04T05:29:05.693Z,99644.67
2023-04-04T05:30:26.658Z,99647.26
2023-04-04T05:31:19.224Z,99646.86
2023-04-04T05:32:32.878Z,99642.41
2023-04-04T05:33:44.951Z,99642.17
2023-04-04T05:35:15.807Z,99640.33
2023-04-04T05:36:10.987Z,99641.79
2023-04-04T05:36:57.240Z,99638.42
2023-04-04T05:37:50.799Z,99646.45
2023-04-04T05:39:00.829Z,99645.55
2023-04-04T05:39:58.589Z,99641.47
2023-04-04T05:41:24.282Z,99649.36
2023-04-04T05:42:28.695Z,99645.27
2023-04-04T05:43:56.244Z,99648.14
2023-04-04T05:45:00.383Z,99650.06
2023-04-04T05:45:55.749Z,99650.63
2023-04-04T05:47:13.797Z,99648.46
2023-04-04T05:48:16.508Z,99649.52
2023-04-04T05:49:27.185Z,99653.17
2023-04-04T05:50:10.880Z,99653.55
2023-04-04T05:51:05.326Z,99653.41
2023-04-04T05:52:21.055Z,99656.09
2023-04-04T05:53:35.186Z,99659.41
2023-04-04T05:54:50.799Z,99658.60
2023-04-04T05:55:45.272Z,99660.57
2023-04-04T05:56:56.202Z,99660.77
2023-04-04T05:58:28.937Z,99663.13
2023-04-04T05:59:50.937Z,99662.63
2023-04-04T06:01:14.779Z,99667.27
2023-04-04T06:02:47.331Z,99669.23
2023-04-04T06:04:19.867Z,99670.11
2023-04-04T06:05:23.700Z,99672.19
2023-04-04T06:06:02.479Z,99674.71
2023-04-04T06:07:25.279Z,99672.08
2023-04-04T06:08:37.590Z,99675.79
2023-04-04T06:10:01.050Z,99677.58
2023-04-04T06:10:59.306Z,99677.26
2023-04-04T06:12:31.946Z,99674.16
2023-04-04T06:14:04.619Z,99674.14
2023-04-04T06:15:26.133Z,99675.77
2023-04-04T06:16:34.994Z,99676.27
2023-04-04T06:17:59.530Z,99676.02
2023-04-04T06:19:21.831Z,99677.52
2023-04-04T06:20:24.247Z,99673.58
2023-04-04T06:21:39.245Z,99673.15
2023-04-04T06:23:03.675Z,99672.65
2023-04-04T06:24:14.849Z,99668.39
2023-04-04T06:25:47.687Z,99666.03
2023-04-04T06:27:01.570Z,99668.66
2023-04-04T06:28:15.282Z,99669.10
2023-04-04T06:29:25.584Z,99665.94
2023-04-04T06:30:17.599Z,99666.39
2023-04-04T06:31:35.276Z,99664.21
2023-04-04T06:32:58.275Z,99669.91
2023-04-04T06:34:13.467Z,99664.89
2023-04-04T06:35:37.534Z,99666.84
2023-04-04T06:36:55.340Z,99667.96
2023-04-04T06:38:16.210Z,99664.13
2023-04-04T06:39:31.658Z,99665.25
2023-04-04T06:40:55.998Z,99665.92
2023-04-04T06:42:28.445Z,99666.23
2023-04-04T06:43:50.920Z,99668.09
2023-04-04T06:45:23.489Z,99666.51
2023-04-04T06:46:24.721Z,99663.02
2023-04-04T06:47:42.399Z,99664.33
2023-04-04T06:49:06.094Z,99662.67
2023-04-04T06:50:23.479Z,99661.19
2023-04-04T06:51:35.462Z,99663.22
2023-04-04T06:52:32.963Z,99660.97
2023-04-04T06:53:55.516Z,99659.30
2023-04-04T06:55:06.534Z,99658.48
2023-04-04T06:56:24.393Z,99655.13
2023-04-04T06:57:45.640Z,99655.45
2023-04-04T06:58:50.446Z,99651.80
2023-04-04T06:59:47.463Z,99652.77
2023-04-04T07:01:20.212Z,99650.42
2023-04-04T07:02:34.404Z,99650.63
2023-04-04T07:04:07.037Z,99651.25
2023-04-04T07:05:39.776Z,99647.49
2023-04-04T07:06:57.770Z,99648.99
2023-04-04T07:07:56.284Z,99646.86
2023-04-04T07:09:29.712Z,99646.31
2023-04-04T07:10:28.228Z,99649.16
2023-04-04T07:11:25.470Z,99648.83
2023-04-04T07:12:49.068Z,99645.83
2023-04-04T07:14:11.626Z,99649.98
2023-04-04T07:15:22.992Z,99649.52
2023-04-04T07:16:55.805Z,99656.55
2023-04-04T07:18:28.387Z,99651.08
2023-04-04T07:19:40.530Z,99649.23
2023-04-04T07:20:43.606Z,99651.84
2023-04-04T07:22:16.372Z,99652.48
2023-04-04T07:23:28.671Z,99649.89
2023-04-04T07:24:50.108Z,99646.31
2023-04-04T07:26:22.603Z,99646.25
2023-04-04T07:28:02.341Z,99643.11
2023-04-04T07:29:42.629Z,99658.83
2023-04-04T07:31:15.368Z,99653.83
2023-04-04T07:32:40.739Z,99654.90
2023-04-04T07:34:15.919Z,99661.33
2023-04-04T07:35:48.501Z,99660.09
2023-04-04T07:37:21.066Z,99666.65
2023-04-04T07:38:53.600Z,99662.23
2023-04-04T07:40:26.372Z,99654.95
2023-04-04T07:41:39.162Z,99651.29
2023-04-04T07:42:50.969Z,99653.41
2023-04-04T07:45:48.045Z,99640.24
2023-04-04T07:47:20.726Z,99644.84
2023-04-04T07:48:42.279Z,99642.23
2023-04-04T07:50:08.209Z,99638.55
2023-04-04T07:51:31.270Z,99639.39
2023-04-04T07:53:02.450Z,99640.42
2023-04-04T07:54:35.044Z,99639.95
2023-04-04T07:56:08.829Z,99642.33
2023-04-04T07:57:19.251Z,99640.52
2023-04-04T07:58:25.227Z,99636.37
2023-04-04T07:59:42.153Z,99633.59
2023-04-04T08:00:35.626Z,99627.61
2023-04-04T08:02:08.060Z,99630.09
2023-04-04T08:03:29.726Z,99629.70
2023-04-04T08:04:38.074Z,99634.06
2023-04-04T08:06:10.855Z,99632.58
2023-04-04T08:07:26.331Z,99630.16
2023-04-04T08:08:25.044Z,99628.28
2023-04-04T08:09:42.024Z,99624.14
2023-04-04T08:10:59.900Z,99629.89
2023-04-04T08:12:32.560Z,99612.82
2023-04-04T08:14:04.721Z,99611.80
2023-04-04T08:15:02.487Z,99621.23
2023-04-04T08:15:59.344Z,99615.21
2023-04-04T08:17:04.755Z,99615.10
2023-04-04T08:18:30.123Z,99620.53
2023-04-04T08:19:08.636Z,99625.14
2023-04-04T08:20:14.868Z,99620.51
2023-04-04T08:21:15.012Z,99620.07
2023-04-04T08:21:58.141Z,99613.84
2023-04-04T08:23:22.151Z,99616.02
2023-04-04T08:24:38.084Z,99609.05
2023-04-04T08:25:22.635Z,99611.38
2023-04-04T08:26:03.051Z,99615.96
2023-04-04T08:27:04.621Z,99622.77
2023-04-04T08:28:21.524Z,99622.80
2023-04-04T08:28:59.837Z,99611.38
2023-04-04T08:29:54.881Z,99612.07
2023-04-04T08:31:01.614Z,99603.64
2023-04-04T08:32:34.306Z,99609.23
2023-04-04T08:33:12.467Z,99611.30
2023-04-04T08:34:14.890Z,99608.92
2023-04-04T08:35:32.114Z,99606.65
2023-04-04T08:36:35.779Z,99607.84
2023-04-04T08:37:35.345Z,99617.14
2023-04-04T08:38:50.407Z,99613.30
2023-04-04T08:40:02.687Z,99614.33
2023-04-04T08:41:25.132Z,99613.58
2023-04-04T08:42:36.682Z,99612.75
2023-04-04T08:43:54.451Z,99618.27
2023-04-04T08:45:08.677Z,99608.55
2023-04-04T08:46:28.645Z,99608.17
2023-04-04T08:47:38.477Z,99611.40
2023-04-04T08:48:30.190Z,99603.66
2023-04-04T08:50:02.898Z,99603.48
2023-04-04T08:51:21.332Z,99598.77
2023-04-04T08:52:33.800Z,99603.21
2023-04-04T08:53:33.934Z,99604.30
2023-04-04T08:54:44.123Z,99600.41
2023-04-04T08:55:59.575Z,99605.65
2023-04-04T08:57:15.759Z,99608.21
2023-04-04T08:57:59.287Z,99606.38
2023-04-04T08:58:58.926Z,99602.44
2023-04-04T09:00:25.193Z,99605.98
2023-04-04T09:01:33.085Z,99595.95
2023-04-04T09:02:59.713Z,99599.84
2023-04-04T09:04:14.956Z,99598.39
2023-04-04T09:05:47.561Z,99603.95
2023-04-04T09:07:18.836Z,99605.86
2023-04-04T09:08:33.830Z,99607.23
2023-04-04T09:09:29.442Z,99606.83
2023-04-04T09:10:54.796Z,99603.63
2023-04-04T09:12:17.143Z,99602.73
2023-04-04T09:13:41.278Z,99602.11
2023-04-04T09:14:47.138Z,99602.91
2023-04-04T09:15:54.559Z,99599.40
2023-04-04T09:17:09.042Z,99605.93
2023-04-04T09:18:23.812Z,99599.75
2023-04-04T09:19:26.419Z,99602.86
2023-04-04T09:20:20.494Z,99606.53
2023-04-04T09:21:28.638Z,99606.53
2023-04-04T09:22:47.133Z,99607.16
2023-04-04T09:24:17.506Z,99606.89
2023-04-04T09:25:09.589Z,99610.59
2023-04-04T09:26:24.403Z,99605.23
2023-04-04T09:27:07.992Z,99603.58
2023-04-04T09:28:05.390Z,99606.15
2023-04-04T09:28:57.938Z,99608.86
2023-04-04T09:30:24.669Z,99601.55
2023-04-04T09:31:19.486Z,99606.64
2023-04-04T09:32:22.391Z,99610.63
2023-04-04T09:33:38.406Z,99612.77
2023-04-04T09:34:49.184Z,99612.89
2023-04-04T09:35:28.431Z,99623.64
2023-04-04T09:36:34.617Z,99621.70
2023-04-04T09:37:50.269Z,99616.75
2023-04-04T09:38:48.827Z,99616.93
2023-04-04T09:39:59.473Z,99613.23
2023-04-04T09:40:55.694Z,99616.06
2023-04-04T09:42:08.293Z,99620.48
2023-04-04T09:43:04.722Z,99624.05
2023-04-04T09:44:34.171Z,99621.09
2023-04-04T09:45:42.286Z,99621.30
2023-04-04T09:46:52.594Z,99618.10
2023-04-04T09:48:12.694Z,99617.89
2023-04-04T09:49:20.125Z,99620.90
2023-04-04T09:50:17.507Z,99619.42
2023-04-04T09:51:50.015Z,99614.50
2023-04-04T09:53:00.678Z,99612.08
2023-04-04T09:53:56.433Z,99611.48
2023-04-04T09:55:19.273Z,99611.92
2023-04-04T09:56:34.653Z,99611.86
2023-04-04T09:57:20.604Z,99611.85
2023-04-04T09:58:09.070Z,99615.79
2023-04-04T09:59:13.656Z,99610.03
2023-04-04T10:00:38.569Z,99610.10
2023-04-04T10:01:39.794Z,99605.35
2023-04-04T10:02:34.707Z,99606.52
2023-04-04T10:04:01.117Z,99607.88
2023-04-04T10:05:34.079Z,99608.83
2023-04-04T10:06:46.454Z,99611.54
2023-04-04T10:07:51.282Z,99610.27
2023-04-04T10:08:58.824Z,99614.13
2023-04-04T10:10:23.815Z,99608.48
2023-04-04T10:11:25.212Z,99612.61
2023-04-04T10:12:34.127Z,99614.61
2023-04-04T10:14:02.651Z,99614.58
2023-04-04T10:15:09.480Z,99610.36
2023-04-04T10:16:44.298Z,99604.77
2023-04-04T10:18:16.913Z,99604.27
2023-04-04T10:19:49.602Z,99591.94
2023-04-04T10:21:15.242Z,99591.75
2023-04-04T10:22:48.663Z,99594.63
2023-04-04T10:23:47.319Z,99594.64
2023-04-04T10:24:44.330Z,99592.69
2023-04-04T10:26:04.817Z,99597.58
2023-04-04T10:27:22.784Z,99593.52
2023-04-04T10:28:54.180Z,99599.92
2023-04-04T10:30:09.526Z,99597.29
2023-04-04T10:31:45.267Z,99598.98
2023-04-04T10:33:13.120Z,99596.80
2023-04-04T10:34:49.362Z,99595.96
2023-04-04T10:36:22.139Z,99602.32
2023-04-04T10:37:45.016Z,99598.14
2023-04-04T10:39:23.453Z,99603.50
2023-04-04T10:40:25.306Z,99606.56
2023-04-04T10:41:49.886Z,99603.94
2023-04-04T10:43:11.698Z,99611.95
2023-04-04T10:44:34.588Z,99614.55
2023-04-04T10:45:53.505Z,99611.31
2023-04-04T10:47:08.648Z,99613.30
2023-04-04T10:48:27.606Z,99617.20
2023-04-04T10:49:44.988Z,99614.27
2023-04-04T10:51:10.634Z,99614.06
2023-04-04T10:52:26.967Z,99613.20
2023-04-04T10:53:42.901Z,99611.00
2023-04-04T10:54:33.553Z,99612.69
2023-04-04T10:55:49.485Z,99609.27
2023-04-04T10:57:22.009Z,99604.60
2023-04-04T10:58:15.927Z,99600.45
2023-04-04T10:59:53.881Z,99604.13
2023-04-04T11:01:22.336Z,99606.21
2023-04-04T11:03:01.566Z,99607.20
2023-04-04T11:04:32.630Z,99604.94
2023-04-04T11:06:12.618Z,99602.30
2023-04-04T11:07:44.623Z,99602.89
2023-04-04T11:09:13.846Z,99599.05
2023-04-04T11:10:55.733Z,99596.90
2023-04-04T11:12:36.917Z,99592.67
2023-04-04T11:14:06.876Z,99585.05
2023-04-04T11:15:35.908Z,99583.50
2023-04-04T11:16:58.948Z,99577.59
2023-04-04T11:18:33.314Z,99571.63
2023-04-04T11:20:06.952Z,99579.16
2023-04-04T11:21:06.988Z,99585.37
2023-04-04T11:22:39.494Z,99586.45
2023-04-04T11:23:58.500Z,99587.96
2023-04-04T11:25:10.948Z,99586.66
2023-04-04T11:26:37.201Z,99593.52
2023-04-04T11:27:50.457Z,99595.64
2023-04-04T11:29:27.680Z,99591.23
2023-04-04T11:31:00.309Z,99590.79
2023-04-04T11:32:35.555Z,99594.25
2023-04-04T11:33:42.860Z,99587.42
2023-04-04T11:34:39.393Z,99584.77
2023-04-04T11:35:51.449Z,99584.98
2023-04-04T11:37:04.914Z,99589.23
2023-04-04T11:38:33.662Z,99592.04
2023-04-04T11:39:50.043Z,99589.67
2023-04-04T11:41:22.591Z,99583.21
2023-04-04T11:42:48.126Z,99580.92
2023-04-04T11:43:38.771Z,99588.44
2023-04-04T11:45:05.251Z,99583.11
2023-04-04T11:45:58.126Z,99584.88
2023-04-04T11:46:42.558Z,99585.56
2023-04-04T11:47:50.023Z,99582.56
2023-04-04T11:49:12.468Z,99593.11
2023-04-04T11:50:20.133Z,99587.54
2023-04-04T11:51:10.913Z,99587.81
2023-04-04T11:52:26.232Z,99586.89
2023-04-04T11:53:27.858Z,99585.04
2023-04-04T11:54:31.711Z,99583.61
2023-04-04T11:55:57.061Z,99583.52
2023-04-04T11:56:41.684Z,99583.33
2023-04-04T11:58:17.473Z,99581.52
2023-04-04T11:59:23.323Z,99574.27
2023-04-04T12:00:15.359Z,99574.55
2023-04-04T12:01:30.548Z,99575.31
2023-04-04T12:02:41.526Z,99572.64
2023-04-04T12:03:47.140Z,99570.91
2023-04-04T12:05:19.837Z,99571.02
2023-04-04T12:06:42.038Z,99563.35
2023-04-04T12:08:07.622Z,99561.93
2023-04-04T12:09:18.261Z,99564.40
2023-04-04T12:10:33.934Z,99565.19
2023-04-04T12:11:23.842Z,99567.25
2023-04-04T12:12:45.300Z,99568.71
2023-04-04T12:14:01.563Z,99565.23
2023-04-04T12:15:33.258Z,99566.41
2023-04-04T12:16:55.623Z,99568.36
2023-04-04T12:18:10.031Z,99567.55
2023-04-04T12:19:20.798Z,99568.51
2023-04-04T12:20:53.503Z,99570.06
2023-04-04T12:21:56.994Z,99568.90
2023-04-04T12:22:55.317Z,99565.34
2023-04-04T12:23:55.252Z,99564.36
2023-04-04T12:25:09.143Z,99569.48
2023-04-04T12:26:34.781Z,99568.94
2023-04-04T12:28:07.160Z,99564.55
2023-04-04T12:29:22.402Z,99560.84
2023-04-04T12:30:46.071Z,99560.10
2023-04-04T12:32:18.939Z,99560.56
2023-04-04T12:33:08.417Z,99555.26
2023-04-04T12:34:41.020Z,99555.57
2023-04-04T12:35:44.139Z,99546.10
2023-04-04T12:36:42.285Z,99541.50
2023-04-04T12:38:05.839Z,99540.52
2023-04-04T12:39:41.207Z,99543.95
2023-04-04T12:41:14.705Z,99538.13
2023-04-04T12:42:53.473Z,99530.54
2023-04-04T12:44:19.115Z,99528.69
2023-04-04T12:45:51.688Z,99534.67
2023-04-04T12:46:48.835Z,99526.84
2023-04-04T12:48:01.215Z,99526.41
2023-04-04T12:49:14.044Z,99523.88
2023-04-04T12:50:46.985Z,99526.05
2023-04-04T12:51:50.356Z,99523.79
2023-04-04T12:53:27.582Z,99522.65
2023-04-04T12:55:06.872Z,99518.42
2023-04-04T12:55:49.193Z,99528.35
2023-04-04T12:56:31.452Z,99524.11
2023-04-04T12:57:18.881Z,99527.30
2023-04-04T12:59:39.532Z,99524.86
2023-04-04T13:00:48.523Z,99533.58
2023-04-04T13:01:24.244Z,99528.87
2023-04-04T13:02:42.444Z,99529.64
2023-04-04T13:03:27.563Z,99530.20
2023-04-04T13:04:38.899Z,99534.68
2023-04-04T13:05:36.418Z,99532.46
2023-04-04T13:06:47.808Z,99530.02
2023-04-04T13:08:05.446Z,99539.62
2023-04-04T13:09:08.053Z,99547.27
2023-04-04T13:10:33.756Z,99534.20
2023-04-04T13:11:50.057Z,99534.61
2023-04-04T13:13:02.774Z,99536.13
2023-04-04T13:14:16.534Z,99534.08
2023-04-04T13:15:27.788Z,99531.20
2023-04-04T13:16:33.686Z,99535.50
2023-04-04T13:17:09.013Z,99532.21
2023-04-04T13:18:25.949Z,99539.54
2023-04-04T13:19:04.409Z,99543.89
2023-04-04T13:20:18.643Z,99532.14
2023-04-04T13:21:22.332Z,99535.53
2023-04-04T13:22:15.851Z,99527.48
2023-04-04T13:23:18.020Z,99526.79
2023-04-04T13:24:19.008Z,99529.46
2023-04-04T13:25:51.601Z,99533.16
2023-04-04T13:27:24.282Z,99523.67
2023-04-04T13:28:48.319Z,99525.05
2023-04-04T13:29:53.150Z,99527.04
2023-04-04T13:30:48.388Z,99526.27
2023-04-04T13:31:49.228Z,99519.91
2023-04-04T13:32:35.756Z,99521.66
2023-04-04T13:33:25.502Z,99522.91
2023-04-04T13:34:53.032Z,99518.20
2023-04-04T13:36:00.374Z,99520.23
2023-04-04T13:37:13.074Z,99518.37
2023-04-04T13:38:26.967Z,99520.15
2023-04-04T13:39:48.256Z,99517.19
2023-04-04T13:41:09.600Z,99528.48
2023-04-04T13:42:32.282Z,99521.83
2023-04-04T13:43:47.850Z,99518.30
2023-04-04T13:44:59.025Z,99520.38
2023-04-04T13:46:33.239Z,99519.45
2023-04-04T13:48:05.927Z,99521.77
2023-04-04T13:49:39.601Z,99530.55
2023-04-04T13:51:04.563Z,99521.66
2023-04-04T13:52:01.631Z,99527.14
2023-04-04T13:52:46.806Z,99523.23
2023-04-04T13:54:01.035Z,99521.00
2023-04-04T13:55:07.742Z,99520.23
2023-04-04T13:56:18.932Z,99525.52
2023-04-04T13:57:46.047Z,99524.37
2023-04-04T13:59:11.648Z,99524.76
2023-04-04T14:00:44.404Z,99527.43
2023-04-04T14:01:53.612Z,99522.73
2023-04-04T14:02:57.139Z,99527.08
2023-04-04T14:04:00.706Z,99522.59
2023-04-04T14:05:30.682Z,99522.47
2023-04-04T14:06:55.441Z,99517.05
2023-04-04T14:07:48.052Z,99524.59
2023-04-04T14:08:46.575Z,99522.66
2023-04-04T14:10:19.360Z,99523.06
2023-04-04T14:11:45.005Z,99524.07
2023-04-04T14:13:06.487Z,99516.38
2023-04-04T14:14:12.081Z,99518.27
2023-04-04T14:15:33.623Z,99520.13
2023-04-04T14:16:48.937Z,99518.65
2023-04-04T14:17:53.082Z,99528.63
2023-04-04T14:18:52.592Z,99527.36
2023-04-04T14:19:48.189Z,99522.83
2023-04-04T14:20:46.043Z,99525.55
2023-04-04T14:22:04.677Z,99518.89
2023-04-04T14:23:37.317Z,99526.45
2023-04-04T14:25:08.731Z,99528.59
2023-04-04T14:26:04.196Z,99524.63
2023-04-04T14:27:14.504Z,99515.77
2023-04-04T14:28:46.997Z,99522.58
2023-04-04T14:29:38.127Z,99517.45
2023-04-04T14:30:30.919Z,99525.71
2023-04-04T14:31:30.976Z,99526.73
2023-04-04T14:32:25.247Z,99530.11
2023-04-04T14:33:51.018Z,99525.06
2023-04-04T14:35:05.905Z,99525.96
2023-04-04T14:35:57.578Z,99523.16